Penticton Airport
CYYF : now visible

Airfield :











YOU CAN JOIN US ON...

 
LOGIN :

Register | Disclaimer

   EN    FR    IT 

 









Legend :    VFR   Marginal VFR   IFR   Intensive IFR   Very Intensive IFR
Visi :
Ceiling :
>= 8 km
>= 3000ft
5 to 8 km
1000 to 3000 ft
1500m to 5 km
500 to 1000 ft
800 to 1500m
200 to 500 ft
< 800m
< 200 ft
Symbols :   Thunderstorms  Fog  Heavy snow  Heavy precipitations  Wind > 20 kt






- Airport Elevation : 1129 ft
- IATA code : YYF


CYYF - Penticton

CURRENT METAR :
  • 221300Z 02005KT 15SM FEW085 SCT120 08/01 A2984 RMK AC2AC1 VIRGA SLP106

EXPIRED METARs :
  • 221200Z 35006KT 15SM SCT120 06/M01 A2983 RMK AC4 SLP103
  • 221100Z 36006KT 15SM FEW120 07/M00 A2980 RMK AC2 SLP096

TAF TAF CYYF
Valid from the 22 at 13:00 until the 23 at 01:00 UTC


221238Z 2213/2301 36007KT P6SM FEW060 BKN120
BECMG 2215/2217 36015G25KT
FM221800 36015G25KT P6SM SCT060 RMK NXT FCST BY 221900Z
CZVR FIR / North America



MET'MAP, your aeronautical weather chart ! - Copyright ORBIFLY December 2007 - Disclaimer

ORBIFLY MET'MAP TEAM :

Programming & Development : Alexandra Zaïnal
Concept & original design : Baudouin d'Aumeries
Assistance for programming : Marc-Olivier Méhu
Technical & hardware support : Manuel Goepfert

Contact : metmap@orbifly.com




SOURCES & CREDITS :

   NOAA       Earth
Advisory